Time;durP1;ratioP1;P1;durP2;ratioP2;P2;SDS_P1;SDS_P2;PMS_P1;PMS_P2;Temp;Humidity;BMP_temperature;BMP_pressure;BME280_temperature;BME280_humidity;BME280_pressure;Samples;Min_cycle;Max_cycle;Signal;HPM_P1;HPM_P2
2024/01/07 00:01:26;;;;;;;5.30;4.80;;;;;;;-3.59;100.00;100277.35;87078;271;137084;-68
2024/01/07 00:03:28;;;;;;;6.40;5.10;;;;;;;-3.59;100.00;100284.44;87260;269;25243;-68
2024/01/07 00:05:30;;;;;;;8.30;6.90;;;;;;;-3.59;100.00;100279.55;87079;266;136892;-75
2024/01/07 00:07:35;;;;;;;6.70;5.10;;;;;;;-3.57;100.00;100283.11;87373;270;26781;-75
2024/01/07 00:09:37;;;;;;;5.60;5.10;;;;;;;-3.59;100.00;100278.39;87078;271;136377;-73
2024/01/07 00:11:39;;;;;;;8.20;6.00;;;;;;;-3.63;100.00;100288.34;87109;274;25143;-73
2024/01/07 00:13:42;;;;;;;7.40;5.50;;;;;;;-3.66;100.00;100288.00;86957;270;135945;-74
2024/01/07 00:15:45;;;;;;;6.00;5.20;;;;;;;-3.66;100.00;100288.91;87102;266;22698;-70
2024/01/07 00:17:47;;;;;;;7.40;5.30;;;;;;;-3.61;100.00;100287.54;86935;270;137195;-78
2024/01/07 00:19:49;;;;;;;5.40;4.40;;;;;;;-3.55;100.00;100294.40;87132;269;26341;-68
2024/01/07 00:21:50;;;;;;;6.90;5.20;;;;;;;-3.50;100.00;100298.85;87009;278;138459;-76
2024/01/07 00:23:52;;;;;;;6.50;5.20;;;;;;;-3.50;100.00;100292.73;87175;278;24126;-69
2024/01/07 00:25:54;;;;;;;4.40;3.70;;;;;;;-3.56;100.00;100294.48;87051;267;140327;-67
2024/01/07 00:27:57;;;;;;;7.30;5.20;;;;;;;-3.61;100.00;100297.11;87283;274;22553;-72
2024/01/07 00:29:58;;;;;;;5.70;4.90;;;;;;;-3.67;100.00;100301.98;87826;278;136380;-72
2024/01/07 00:32:02;;;;;;;9.50;5.30;;;;;;;-3.70;100.00;100299.40;87150;274;22652;-68
2024/01/07 00:34:04;;;;;;;7.30;5.70;;;;;;;-3.72;100.00;100299.84;87364;273;24273;-67
2024/01/07 00:36:06;;;;;;;8.20;6.10;;;;;;;-3.73;100.00;100301.80;87022;270;138463;-69
2024/01/07 00:38:08;;;;;;;6.60;4.80;;;;;;;-3.73;100.00;100303.90;87084;274;22699;-70
2024/01/07 00:40:10;;;;;;;7.60;5.40;;;;;;;-3.74;100.00;100305.51;87052;274;137791;-68
2024/01/07 00:42:12;;;;;;;7.40;5.80;;;;;;;-3.75;100.00;100309.05;87653;273;23483;-69
2024/01/07 00:44:14;;;;;;;7.10;5.50;;;;;;;-3.79;100.00;100307.77;87063;278;136665;-70
2024/01/07 00:46:16;;;;;;;6.10;5.40;;;;;;;-3.86;100.00;100297.08;87164;278;23035;-71
2024/01/07 00:48:17;;;;;;;8.50;6.00;;;;;;;-3.92;100.00;100308.59;87108;267;137284;-73
2024/01/07 00:50:19;;;;;;;6.10;5.50;;;;;;;-3.95;100.00;100302.86;87170;278;24111;-68
2024/01/07 00:52:23;;;;;;;8.60;5.30;;;;;;;-3.95;100.00;100305.44;86949;274;188381;-68
2024/01/07 00:54:24;;;;;;;8.80;5.50;;;;;;;-3.93;100.00;100307.27;87282;279;22638;-73
2024/01/07 00:56:28;;;;;;;6.40;5.20;;;;;;;-3.92;100.00;100312.05;87176;267;137338;-65
2024/01/07 00:58:29;;;;;;;8.80;6.00;;;;;;;-3.92;100.00;100315.55;87144;267;23085;-67
2024/01/07 01:00:32;;;;;;;5.90;5.20;;;;;;;-3.92;100.00;100324.19;87231;273;136986;-67
2024/01/07 01:02:35;;;;;;;6.80;5.50;;;;;;;-3.93;100.00;100311.23;87487;273;22574;-69
2024/01/07 01:04:40;;;;;;;8.80;7.00;;;;;;;-3.95;100.00;100313.11;86903;272;136057;-68
2024/01/07 01:06:42;;;;;;;7.10;5.90;;;;;;;-3.97;100.00;100318.58;87104;278;25117;-68
2024/01/07 01:08:45;;;;;;;7.20;5.90;;;;;;;-3.97;100.00;100321.90;86827;271;136879;-65
2024/01/07 01:10:47;;;;;;;7.20;6.10;;;;;;;-3.96;100.00;100323.39;87116;278;22772;-68
2024/01/07 01:12:48;;;;;;;6.70;5.50;;;;;;;-3.94;100.00;100323.83;87093;277;136973;-71
2024/01/07 01:14:51;;;;;;;6.50;5.50;;;;;;;-3.95;100.00;100324.20;87432;261;22640;-69
2024/01/07 01:16:53;;;;;;;6.50;5.00;;;;;;;-3.96;100.00;100313.54;87328;266;139639;-67
2024/01/07 01:18:55;;;;;;;6.80;5.30;;;;;;;-3.97;100.00;100312.86;86868;271;25246;-70
2024/01/07 01:20:57;;;;;;;6.10;5.50;;;;;;;-3.96;100.00;100320.63;86810;264;136954;-68
2024/01/07 01:22:58;;;;;;;6.50;5.90;;;;;;;-3.97;100.00;100319.83;86635;276;23598;-67
2024/01/07 01:25:01;;;;;;;7.50;6.30;;;;;;;-4.03;100.00;100318.64;86750;272;136340;-67
2024/01/07 01:27:03;;;;;;;8.70;6.50;;;;;;;-4.08;100.00;100312.91;86949;271;24015;-68
2024/01/07 01:29:05;;;;;;;8.60;6.40;;;;;;;-4.13;100.00;100320.13;87299;275;136740;-69
2024/01/07 01:31:07;;;;;;;6.10;5.30;;;;;;;-4.13;100.00;100320.80;86949;270;22555;-68
2024/01/07 01:33:09;;;;;;;6.70;4.90;;;;;;;-4.12;100.00;100324.02;86801;267;137731;-77
2024/01/07 01:35:11;;;;;;;10.20;6.90;;;;;;;-4.12;100.00;100331.85;86989;269;22541;-75
2024/01/07 01:37:12;;;;;;;6.20;5.30;;;;;;;-4.11;100.00;100327.81;87074;266;137354;-68
2024/01/07 01:39:14;;;;;;;7.00;4.70;;;;;;;-4.12;100.00;100332.16;87098;279;24010;-68
2024/01/07 01:41:16;;;;;;;6.90;5.30;;;;;;;-4.18;100.00;100330.14;87019;262;136227;-67
2024/01/07 01:43:28;;;;;;;6.50;5.30;;;;;;;-4.28;100.00;100329.39;88091;271;25105;-69
2024/01/07 01:45:30;;;;;;;7.30;5.40;;;;;;;-4.37;100.00;100324.89;89224;278;136432;-68
2024/01/07 01:47:33;;;;;;;8.10;5.90;;;;;;;-4.42;100.00;100336.11;86947;272;22623;-69
2024/01/07 01:49:36;;;;;;;7.50;5.80;;;;;;;-4.43;100.00;100330.14;87040;271;137236;-69
2024/01/07 01:51:38;;;;;;;8.70;5.40;;;;;;;-4.46;100.00;100339.83;86874;272;22645;-69
2024/01/07 01:53:40;;;;;;;6.70;5.60;;;;;;;-4.47;100.00;100329.52;86910;276;136593;-70
2024/01/07 01:55:43;;;;;;;6.60;5.40;;;;;;;-4.49;100.00;100324.02;87085;271;22584;-69
2024/01/07 01:57:47;;;;;;;9.30;6.90;;;;;;;-4.48;100.00;100320.87;87666;277;136517;-73
2024/01/07 01:59:48;;;;;;;7.80;6.10;;;;;;;-4.51;100.00;100326.74;87601;268;24144;-71
2024/01/07 02:01:50;;;;;;;9.60;7.30;;;;;;;-4.58;100.00;100327.71;86940;273;136175;-71
2024/01/07 02:03:53;;;;;;;10.10;6.90;;;;;;;-4.65;100.00;100329.48;87081;269;23884;-69
2024/01/07 02:05:57;;;;;;;9.20;6.40;;;;;;;-4.68;100.00;100342.51;87085;270;136921;-69
2024/01/07 02:07:59;;;;;;;9.70;6.30;;;;;;;-4.71;100.00;100323.42;87262;269;23766;-71
2024/01/07 02:10:01;;;;;;;11.10;7.20;;;;;;;-4.74;100.00;100333.86;86824;272;137171;-69
2024/01/07 02:12:11;;;;;;;9.40;7.10;;;;;;;-4.76;100.00;100342.13;87063;271;137821;-68
2024/01/07 02:14:13;;;;;;;8.20;6.60;;;;;;;-4.81;100.00;100324.02;87569;274;23641;-74
2024/01/07 02:16:15;;;;;;;12.70;7.50;;;;;;;-4.83;100.00;100324.48;87048;271;137144;-72
2024/01/07 02:18:17;;;;;;;9.10;6.20;;;;;;;-4.85;100.00;100327.74;87614;270;24066;-73
2024/01/07 02:20:19;;;;;;;10.50;7.10;;;;;;;-4.90;100.00;100342.06;87186;273;137411;-68
2024/01/07 02:22:22;;;;;;;7.20;6.40;;;;;;;-4.96;100.00;100331.13;87395;270;22651;-69
2024/01/07 02:24:23;;;;;;;7.80;7.10;;;;;;;-5.01;100.00;100316.34;87265;273;137560;-66
2024/01/07 02:26:25;;;;;;;8.60;7.60;;;;;;;-5.01;100.00;100322.42;87362;270;25204;-67
2024/01/07 02:28:32;;;;;;;7.70;6.50;;;;;;;-5.01;100.00;100314.11;87332;277;138486;-67
2024/01/07 02:30:36;;;;;;;7.40;5.60;;;;;;;-5.02;100.00;100315.54;87287;270;22570;-68
2024/01/07 02:32:38;;;;;;;7.50;6.10;;;;;;;-5.05;100.00;100325.08;87238;269;137091;-66
2024/01/07 02:34:40;;;;;;;9.00;7.20;;;;;;;-5.10;100.00;100321.55;87262;270;22589;-69
2024/01/07 02:36:42;;;;;;;8.00;5.90;;;;;;;-5.13;100.00;100325.67;87232;270;138455;-69
2024/01/07 02:38:44;;;;;;;7.80;6.40;;;;;;;-5.15;100.00;100336.94;87322;277;22555;-66
2024/01/07 02:40:45;;;;;;;6.10;5.50;;;;;;;-5.22;100.00;100340.80;87117;276;136403;-68
2024/01/07 02:42:47;;;;;;;9.50;6.60;;;;;;;-5.30;100.00;100334.09;87299;270;22566;-67
2024/01/07 02:44:49;;;;;;;9.80;7.40;;;;;;;-5.34;100.00;100325.33;87264;273;137156;-67
2024/01/07 02:46:51;;;;;;;8.90;7.30;;;;;;;-5.33;100.00;100341.88;87362;273;24036;-66
2024/01/07 02:48:53;;;;;;;10.30;6.90;;;;;;;-5.31;100.00;100337.31;87239;272;138516;-67
2024/01/07 02:50:56;;;;;;;9.20;6.60;;;;;;;-5.31;100.00;100343.16;87371;263;25089;-66
2024/01/07 02:52:57;;;;;;;7.80;6.20;;;;;;;-5.32;100.00;100348.09;87257;270;138383;-69
2024/01/07 02:55:01;;;;;;;8.90;6.40;;;;;;;-5.34;100.00;100353.41;87317;268;25348;-68
2024/01/07 02:57:04;;;;;;;7.30;6.10;;;;;;;-5.38;100.00;100344.29;87261;270;136898;-66
2024/01/07 02:59:06;;;;;;;9.30;7.10;;;;;;;-5.46;100.00;100358.77;87425;270;22661;-67
2024/01/07 03:01:10;;;;;;;11.10;8.20;;;;;;;-5.54;100.00;100342.52;87317;278;136630;-70
2024/01/07 03:03:12;;;;;;;9.70;7.10;;;;;;;-5.57;100.00;100342.92;87458;266;25178;-67
2024/01/07 03:05:14;;;;;;;8.80;7.00;;;;;;;-5.58;100.00;100346.26;87272;278;138734;-68
2024/01/07 03:07:17;;;;;;;7.50;6.70;;;;;;;-5.62;100.00;100354.80;87392;270;24010;-67
2024/01/07 03:09:19;;;;;;;16.40;8.50;;;;;;;-5.68;100.00;100359.61;87300;269;137236;-68
2024/01/07 03:11:21;;;;;;;9.90;5.50;;;;;;;-5.76;100.00;100348.27;87299;278;22547;-73
2024/01/07 03:13:23;;;;;;;11.70;7.00;;;;;;;-5.83;100.00;100349.69;87310;266;139218;-68
2024/01/07 03:15:27;;;;;;;9.60;6.00;;;;;;;-5.87;100.00;100354.43;87292;266;24209;-67
2024/01/07 03:17:29;;;;;;;8.50;6.60;;;;;;;-5.91;100.00;100341.11;87285;266;137347;-72
2024/01/07 03:19:31;;;;;;;9.00;6.40;;;;;;;-5.94;100.00;100357.36;87379;270;22597;-68
2024/01/07 03:21:34;;;;;;;8.60;7.00;;;;;;;-5.98;100.00;100359.35;87269;269;136488;-68
2024/01/07 03:23:36;;;;;;;10.50;8.00;;;;;;;-6.05;100.00;100351.75;87499;274;25095;-68
2024/01/07 03:25:37;;;;;;;10.90;7.90;;;;;;;-6.10;100.00;100352.38;87250;273;137152;-67
2024/01/07 03:27:39;;;;;;;9.60;7.50;;;;;;;-6.10;100.00;100365.86;87338;268;22566;-70
2024/01/07 03:29:41;;;;;;;9.50;6.70;;;;;;;-6.08;100.00;100378.02;87230;270;138224;-67
2024/01/07 03:31:45;;;;;;;8.90;7.30;;;;;;;-6.06;100.00;100370.33;87354;270;25099;-72
2024/01/07 03:33:47;;;;;;;11.60;7.10;;;;;;;-6.06;100.00;100368.23;87249;269;138142;-69
2024/01/07 03:35:49;;;;;;;12.10;7.80;;;;;;;-6.04;100.00;100384.45;87323;277;25104;-68
2024/01/07 03:37:51;;;;;;;12.60;8.00;;;;;;;-6.09;100.00;100385.19;87273;269;137799;-67
2024/01/07 03:39:52;;;;;;;12.50;7.60;;;;;;;-6.16;100.00;100374.30;87297;270;25256;-67
2024/01/07 03:41:55;;;;;;;10.80;7.50;;;;;;;-6.21;100.00;100384.79;87163;268;137753;-66
2024/01/07 03:43:57;;;;;;;11.30;7.70;;;;;;;-6.24;100.00;100385.10;87386;264;22581;-67
2024/01/07 03:46:02;;;;;;;12.50;8.10;;;;;;;-6.21;100.00;100386.19;87264;270;138194;-68
2024/01/07 03:48:06;;;;;;;9.60;7.50;;;;;;;-6.20;100.00;100378.34;87179;270;137473;-68
2024/01/07 03:50:09;;;;;;;10.50;7.30;;;;;;;-6.20;100.00;100387.02;87396;271;22580;-68
2024/01/07 03:52:11;;;;;;;9.50;6.60;;;;;;;-6.21;100.00;100388.92;87245;271;137326;-67
2024/01/07 03:54:12;;;;;;;12.90;7.30;;;;;;;-6.24;100.00;100391.52;87421;274;22568;-68
2024/01/07 03:56:14;;;;;;;10.10;8.20;;;;;;;-6.30;100.00;100398.20;87193;271;137267;-70
2024/01/07 03:58:16;;;;;;;10.40;7.20;;;;;;;-6.36;100.00;100400.77;87219;274;22564;-66
2024/01/07 04:00:19;;;;;;;8.70;6.90;;;;;;;-6.43;100.00;100406.14;87102;270;138229;-69
2024/01/07 04:02:20;;;;;;;10.70;8.50;;;;;;;-6.47;100.00;100398.23;87222;271;22568;-68
2024/01/07 04:04:23;;;;;;;12.10;8.70;;;;;;;-6.47;100.00;100397.15;87086;271;140111;-66
2024/01/07 04:06:24;;;;;;;10.40;7.40;;;;;;;-6.44;100.00;100393.25;87416;270;22638;-71
2024/01/07 04:08:26;;;;;;;9.90;7.50;;;;;;;-6.46;100.00;100386.75;87242;278;137498;-66
2024/01/07 04:10:28;;;;;;;9.70;7.60;;;;;;;-6.46;100.00;100391.94;87321;278;24058;-67
2024/01/07 04:12:30;;;;;;;13.90;9.30;;;;;;;-6.46;100.00;100397.11;87272;277;137248;-70
2024/01/07 04:14:33;;;;;;;9.10;8.10;;;;;;;-6.47;100.00;100403.20;87226;266;24116;-70
2024/01/07 04:16:35;;;;;;;11.20;7.30;;;;;;;-6.48;100.00;100403.97;87243;270;137158;-66
2024/01/07 04:18:37;;;;;;;10.20;7.80;;;;;;;-6.51;100.00;100406.02;87351;277;24119;-67
2024/01/07 04:20:39;;;;;;;11.40;7.60;;;;;;;-6.56;100.00;100408.34;87232;269;136711;-69
2024/01/07 04:22:41;;;;;;;9.00;7.30;;;;;;;-6.60;100.00;100411.82;87382;273;22635;-68
2024/01/07 04:24:44;;;;;;;9.60;7.20;;;;;;;-6.62;100.00;100411.63;87255;268;136769;-68
2024/01/07 04:26:46;;;;;;;10.40;6.90;;;;;;;-6.61;100.00;100427.46;87456;270;22556;-66
2024/01/07 04:28:47;;;;;;;9.60;7.00;;;;;;;-6.61;100.00;100429.70;87283;274;137558;-68
2024/01/07 04:30:49;;;;;;;10.50;6.40;;;;;;;-6.65;100.00;100435.60;87371;274;25181;-67
2024/01/07 04:32:51;;;;;;;9.40;6.90;;;;;;;-6.74;100.00;100431.00;87269;273;137747;-77
2024/01/07 04:34:53;;;;;;;10.70;6.30;;;;;;;-6.79;100.00;100430.59;87389;268;22581;-68
2024/01/07 04:36:55;;;;;;;10.30;7.20;;;;;;;-6.82;100.00;100434.55;87283;269;137110;-66
2024/01/07 04:38:57;;;;;;;9.60;7.20;;;;;;;-6.84;100.00;100436.86;87327;269;22568;-68
2024/01/07 04:40:59;;;;;;;7.20;6.50;;;;;;;-6.82;100.00;100445.79;87217;274;137243;-68
2024/01/07 04:43:00;;;;;;;9.40;6.60;;;;;;;-6.83;100.00;100445.30;87371;266;22559;-69
2024/01/07 04:45:03;;;;;;;11.20;7.40;;;;;;;-6.84;100.00;100449.15;87299;266;137345;-68
2024/01/07 04:47:23;;;;;;;10.20;7.30;;;;;;;-6.81;100.00;100452.48;87530;270;24011;-69
2024/01/07 04:49:25;;;;;;;8.30;6.60;;;;;;;-6.85;100.00;100455.40;87186;267;136763;-67
2024/01/07 04:51:27;;;;;;;7.80;5.70;;;;;;;-6.91;100.00;100466.05;87393;274;22564;-71
2024/01/07 04:54:39;;;;;;;9.30;6.50;;;;;;;-7.08;100.00;100456.02;85250;304;601793;-67
2024/01/07 04:56:41;;;;;;;9.50;6.30;;;;;;;-6.99;100.00;100454.02;86290;285;136453;-68
2024/01/07 04:58:43;;;;;;;8.10;5.40;;;;;;;-6.93;100.00;100455.96;87270;275;25099;-69
2024/01/07 05:00:45;;;;;;;7.90;5.60;;;;;;;-6.86;100.00;100463.73;87114;263;136335;-66
2024/01/07 05:02:49;;;;;;;7.60;6.30;;;;;;;-6.79;100.00;100457.85;87098;268;25167;-69
2024/01/07 05:04:51;;;;;;;8.50;6.30;;;;;;;-6.82;100.00;100467.20;87119;276;135730;-69
2024/01/07 05:06:53;;;;;;;10.60;5.70;;;;;;;-6.92;100.00;100465.41;87024;279;26702;-70
2024/01/07 05:08:57;;;;;;;8.10;5.30;;;;;;;-7.05;100.00;100455.68;86675;270;375916;-70
2024/01/07 05:10:59;;;;;;;8.60;6.60;;;;;;;-7.13;100.00;100455.88;87125;274;22578;-71
2024/01/07 05:13:04;;;;;;;7.20;6.50;;;;;;;-7.13;100.00;100465.22;87226;271;136352;-68
2024/01/07 05:15:07;;;;;;;8.50;6.60;;;;;;;-7.11;100.00;100466.16;87369;274;25006;-68
2024/01/07 05:17:09;;;;;;;8.70;7.10;;;;;;;-7.08;100.00;100461.86;87260;266;137045;-67
2024/01/07 05:19:11;;;;;;;9.30;6.00;;;;;;;-7.07;100.00;100472.70;87297;274;24003;-70
2024/01/07 05:21:18;;;;;;;7.10;5.60;;;;;;;-7.12;100.00;100472.74;87228;269;136948;-67
2024/01/07 05:23:20;;;;;;;9.10;6.10;;;;;;;-7.12;100.00;100469.66;87394;274;24029;-68
2024/01/07 05:25:22;;;;;;;8.20;6.00;;;;;;;-7.17;100.00;100478.02;87285;266;136727;-65
2024/01/07 05:27:24;;;;;;;8.30;5.30;;;;;;;-7.25;100.00;100482.85;87394;274;22565;-70
2024/01/07 05:29:26;;;;;;;10.10;7.10;;;;;;;-7.30;100.00;100475.33;87231;278;136135;-67
2024/01/07 05:31:28;;;;;;;8.30;6.30;;;;;;;-7.33;100.00;100478.23;87343;274;24116;-68
2024/01/07 05:33:30;;;;;;;6.60;5.50;;;;;;;-7.29;100.00;100473.73;87165;263;137322;-68
2024/01/07 05:35:34;;;;;;;8.10;6.80;;;;;;;-7.23;100.00;100482.25;87205;270;22508;-69
2024/01/07 05:37:36;;;;;;;7.70;5.40;;;;;;;-7.18;100.00;100493.45;87220;278;136878;-69
2024/01/07 05:39:38;;;;;;;8.80;5.60;;;;;;;-7.18;100.00;100490.31;87287;266;25239;-84
2024/01/07 05:41:40;;;;;;;7.80;4.50;;;;;;;-7.22;100.00;100484.98;87249;274;136186;-85
2024/01/07 05:43:42;;;;;;;7.00;4.50;;;;;;;-7.26;100.00;100497.20;87365;274;23988;-68
2024/01/07 05:45:43;;;;;;;6.70;5.40;;;;;;;-7.27;100.00;100494.17;87251;267;136189;-67
2024/01/07 05:47:45;;;;;;;8.30;5.50;;;;;;;-7.28;100.00;100486.80;87297;279;22689;-67
2024/01/07 05:49:47;;;;;;;6.00;4.60;;;;;;;-7.34;100.00;100492.40;87197;274;137333;-67
2024/01/07 05:51:49;;;;;;;5.10;4.30;;;;;;;-7.42;100.00;100494.52;87372;278;22558;-69
2024/01/07 05:53:53;;;;;;;6.10;4.20;;;;;;;-7.46;100.00;100490.70;87331;277;136471;-67
2024/01/07 05:55:55;;;;;;;6.10;4.20;;;;;;;-7.47;100.00;100494.38;87398;270;24023;-68
2024/01/07 05:57:58;;;;;;;4.60;3.10;;;;;;;-7.46;100.00;100491.42;87246;266;137236;-66
2024/01/07 06:00:00;;;;;;;6.10;4.60;;;;;;;-7.51;100.00;100486.98;87364;271;24048;-67
2024/01/07 06:02:01;;;;;;;5.50;4.70;;;;;;;-7.56;100.00;100482.02;87283;278;136121;-70
2024/01/07 06:04:05;;;;;;;5.50;4.40;;;;;;;-7.57;100.00;100483.28;87321;270;136708;-68
2024/01/07 06:06:07;;;;;;;4.80;3.50;;;;;;;-7.58;100.00;100479.70;87356;267;25239;-67
2024/01/07 06:08:10;;;;;;;6.80;3.90;;;;;;;-7.59;100.00;100479.42;87270;275;136242;-67
2024/01/07 06:10:12;;;;;;;4.80;4.10;;;;;;;-7.62;100.00;100492.66;87489;274;24528;-74
2024/01/07 06:12:15;;;;;;;3.70;3.20;;;;;;;-7.61;100.00;100490.21;87332;268;137600;-71
2024/01/07 06:14:17;;;;;;;6.20;3.50;;;;;;;-7.58;100.00;100487.11;87344;278;25120;-70
2024/01/07 06:16:19;;;;;;;4.30;3.80;;;;;;;-7.54;100.00;100486.80;87289;271;137253;-67
2024/01/07 06:18:21;;;;;;;5.60;3.70;;;;;;;-7.52;100.00;100490.30;87352;274;24026;-68
2024/01/07 06:20:23;;;;;;;6.70;4.20;;;;;;;-7.49;100.00;100496.52;87215;278;137889;-69
2024/01/07 06:22:25;;;;;;;4.30;3.10;;;;;;;-7.44;100.00;100500.31;87411;271;25107;-70
2024/01/07 06:24:27;;;;;;;3.90;3.10;;;;;;;-7.44;100.00;100499.25;87276;278;136680;-69
2024/01/07 06:26:29;;;;;;;4.00;3.30;;;;;;;-7.43;100.00;100508.55;87317;271;22581;-70
2024/01/07 06:28:34;;;;;;;5.20;3.90;;;;;;;-7.41;100.00;100504.15;87305;270;136558;-69
2024/01/07 06:30:35;;;;;;;4.70;3.10;;;;;;;-7.42;100.00;100508.00;87388;278;24898;-70
2024/01/07 06:32:38;;;;;;;3.70;3.20;;;;;;;-7.46;100.00;100516.94;87322;267;138356;-68
2024/01/07 06:34:40;;;;;;;3.70;3.30;;;;;;;-7.51;100.00;100510.48;87495;271;22573;-70
2024/01/07 06:36:42;;;;;;;6.90;3.20;;;;;;;-7.56;100.00;100522.59;87214;274;136681;-70
2024/01/07 06:38:44;;;;;;;5.10;3.20;;;;;;;-7.59;100.00;100504.79;87399;269;22558;-70
2024/01/07 06:40:46;;;;;;;4.30;3.90;;;;;;;-7.59;100.00;100510.98;87311;269;136765;-70
2024/01/07 06:42:50;;;;;;;3.40;2.90;;;;;;;-7.55;100.00;100506.51;87257;274;22572;-69
2024/01/07 06:44:52;;;;;;;4.60;3.60;;;;;;;-7.52;100.00;100504.80;87244;262;136610;-70
2024/01/07 06:46:54;;;;;;;3.90;2.40;;;;;;;-7.50;100.00;100507.29;87324;278;22866;-69
2024/01/07 06:48:55;;;;;;;5.00;3.00;;;;;;;-7.51;100.00;100508.20;87215;271;136682;-70
2024/01/07 06:50:58;;;;;;;5.00;3.90;;;;;;;-7.54;100.00;100500.55;87393;278;22652;-72
2024/01/07 06:53:00;;;;;;;3.50;2.70;;;;;;;-7.57;100.00;100514.88;87306;278;136805;-72
2024/01/07 06:55:01;;;;;;;4.30;3.90;;;;;;;-7.61;100.00;100517.83;87350;275;22558;-68
2024/01/07 06:57:04;;;;;;;3.80;3.30;;;;;;;-7.66;100.00;100512.83;87260;278;137114;-69
2024/01/07 06:59:07;;;;;;;6.60;4.10;;;;;;;-7.68;100.00;100521.20;87424;274;25146;-70
2024/01/07 07:01:10;;;;;;;2.60;2.40;;;;;;;-7.71;100.00;100521.15;87281;274;136809;-70
2024/01/07 07:03:12;;;;;;;5.70;3.60;;;;;;;-7.73;100.00;100511.60;87350;267;22548;-71
2024/01/07 07:05:14;;;;;;;5.70;3.50;;;;;;;-7.76;100.00;100513.80;87335;274;136577;-68
2024/01/07 07:07:17;;;;;;;4.30;3.70;;;;;;;-7.76;100.00;100519.16;87352;271;22889;-71
2024/01/07 07:09:19;;;;;;;4.70;3.70;;;;;;;-7.75;100.00;100512.40;87302;271;136478;-71
2024/01/07 07:11:21;;;;;;;7.10;3.40;;;;;;;-7.73;100.00;100516.43;87310;267;22562;-68
2024/01/07 07:13:23;;;;;;;7.90;3.70;;;;;;;-7.69;100.00;100512.63;87312;263;137902;-70
2024/01/07 07:15:26;;;;;;;4.30;3.30;;;;;;;-7.61;100.00;100514.20;87369;267;25348;-69
2024/01/07 07:17:28;;;;;;;6.10;4.60;;;;;;;-7.54;100.00;100521.46;87193;278;136861;-71
2024/01/07 07:19:30;;;;;;;5.70;3.70;;;;;;;-7.50;100.00;100528.70;87391;271;25121;-69
2024/01/07 07:21:32;;;;;;;4.30;3.50;;;;;;;-7.50;100.00;100533.52;87281;271;138029;-71
2024/01/07 07:23:34;;;;;;;5.10;3.50;;;;;;;-7.50;100.00;100518.84;87359;271;25243;-71
2024/01/07 07:25:36;;;;;;;6.70;4.10;;;;;;;-7.45;100.00;100521.21;87337;274;136694;-70
2024/01/07 07:27:38;;;;;;;6.90;4.60;;;;;;;-7.43;100.00;100528.57;87273;274;22571;-71
2024/01/07 07:29:39;;;;;;;7.50;4.20;;;;;;;-7.39;100.00;100526.98;87208;274;139539;-70
2024/01/07 07:31:41;;;;;;;4.70;3.20;;;;;;;-7.35;100.00;100529.91;87281;271;22815;-71
2024/01/07 07:33:44;;;;;;;6.50;3.70;;;;;;;-7.31;100.00;100524.92;87095;278;138327;-70
2024/01/07 07:35:46;;;;;;;7.20;5.20;;;;;;;-7.28;100.00;100527.02;87313;271;24020;-70
2024/01/07 07:37:48;;;;;;;5.00;3.50;;;;;;;-7.30;100.00;100525.36;87244;270;138028;-71
2024/01/07 07:39:50;;;;;;;6.80;5.20;;;;;;;-7.33;100.00;100520.54;87340;269;25335;-70
2024/01/07 07:41:53;;;;;;;4.00;3.20;;;;;;;-7.36;100.00;100525.16;87257;278;136667;-70
2024/01/07 07:43:55;;;;;;;5.00;3.40;;;;;;;-7.39;100.00;100527.00;87324;274;22536;-69
2024/01/07 07:45:57;;;;;;;5.70;3.90;;;;;;;-7.39;100.00;100524.27;87269;271;136735;-78
2024/01/07 07:47:59;;;;;;;5.30;4.70;;;;;;;-7.40;100.00;100522.05;87452;274;22577;-80
2024/01/07 07:50:02;;;;;;;7.90;4.10;;;;;;;-7.45;100.00;100526.75;87507;267;136491;-81
2024/01/07 07:52:04;;;;;;;3.70;3.40;;;;;;;-7.50;100.00;100526.14;87644;263;138196;-83
2024/01/07 07:54:07;;;;;;;5.40;4.00;;;;;;;-7.53;100.00;100532.27;87441;272;22539;-80
2024/01/07 07:56:09;;;;;;;5.60;3.60;;;;;;;-7.54;100.00;100537.34;87749;271;137143;-83
2024/01/07 07:58:10;;;;;;;6.10;3.90;;;;;;;-7.55;100.00;100537.37;87584;271;22565;-78
2024/01/07 08:00:13;;;;;;;9.50;4.30;;;;;;;-7.53;100.00;100539.37;87369;271;136904;-79
2024/01/07 08:02:15;;;;;;;9.40;4.40;;;;;;;-7.45;100.00;100531.77;87211;272;24216;-67
2024/01/07 08:04:17;;;;;;;4.80;3.90;;;;;;;-7.38;100.00;100533.67;87214;270;137132;-70
2024/01/07 08:06:19;;;;;;;6.50;4.20;;;;;;;-7.34;100.00;100527.98;87392;269;22574;-68
2024/01/07 08:08:21;;;;;;;8.30;4.60;;;;;;;-7.35;100.00;100523.86;87127;269;137334;-69
2024/01/07 08:10:24;;;;;;;6.40;4.00;;;;;;;-7.37;100.00;100525.55;87385;278;23742;-68
2024/01/07 08:12:25;;;;;;;7.40;4.60;;;;;;;-7.41;100.00;100528.48;87207;271;137972;-65
2024/01/07 08:14:28;;;;;;;5.50;3.60;;;;;;;-7.46;100.00;100540.77;87458;274;22569;-72
2024/01/07 08:16:31;;;;;;;11.00;4.50;;;;;;;-7.53;100.00;100538.52;87442;267;138249;-68
2024/01/07 08:18:33;;;;;;;5.90;4.50;;;;;;;-7.59;100.00;100537.21;87271;274;23952;-71
2024/01/07 08:20:35;;;;;;;6.80;3.80;;;;;;;-7.57;100.00;100544.57;87409;266;139270;-67
2024/01/07 08:22:37;;;;;;;4.00;3.50;;;;;;;-7.53;100.00;100546.80;87254;270;22577;-67
2024/01/07 08:24:39;;;;;;;6.00;4.30;;;;;;;-7.47;100.00;100559.15;87161;273;136752;-69
2024/01/07 08:26:41;;;;;;;6.90;4.00;;;;;;;-7.40;100.00;100552.95;87357;270;22641;-69
2024/01/07 08:28:43;;;;;;;7.10;4.20;;;;;;;-7.40;100.00;100545.73;87122;274;136213;-69
2024/01/07 08:30:45;;;;;;;6.10;5.00;;;;;;;-7.40;100.00;100542.43;87345;270;25208;-70
2024/01/07 08:32:49;;;;;;;7.40;4.70;;;;;;;-7.39;100.00;100541.14;87085;278;138083;-70
2024/01/07 08:34:51;;;;;;;8.20;4.70;;;;;;;-7.38;100.00;100539.39;87332;270;22562;-68
2024/01/07 08:36:53;;;;;;;8.10;5.90;;;;;;;-7.34;100.00;100539.39;87041;267;136880;-77
2024/01/07 08:38:55;;;;;;;8.50;4.80;;;;;;;-7.30;100.00;100531.77;87399;278;24665;-67
2024/01/07 08:40:57;;;;;;;6.80;4.90;;;;;;;-7.25;100.00;100535.69;87097;277;137124;-71
2024/01/07 08:43:00;;;;;;;8.30;4.60;;;;;;;-7.16;100.00;100534.77;87186;269;22563;-70
2024/01/07 08:45:04;;;;;;;5.30;3.40;;;;;;;-7.09;100.00;100549.14;87149;271;136940;-71
2024/01/07 08:47:05;;;;;;;5.90;3.90;;;;;;;-7.09;100.00;100549.64;87186;271;24148;-71
2024/01/07 08:49:07;;;;;;;6.30;4.60;;;;;;;-7.13;100.00;100548.29;86978;279;136963;-72
2024/01/07 08:51:09;;;;;;;5.60;4.30;;;;;;;-7.13;100.00;100541.73;87377;269;22635;-71
2024/01/07 08:53:12;;;;;;;5.90;4.00;;;;;;;-7.12;100.00;100547.72;87022;278;138464;-70
2024/01/07 08:55:15;;;;;;;9.50;4.70;;;;;;;-7.10;100.00;100542.77;87270;271;23689;-69
2024/01/07 08:57:17;;;;;;;5.00;4.10;;;;;;;-7.07;100.00;100553.19;87189;266;136862;-68
2024/01/07 08:59:19;;;;;;;7.30;4.30;;;;;;;-7.08;100.00;100547.20;87201;278;22584;-68
2024/01/07 09:01:21;;;;;;;5.20;4.00;;;;;;;-7.08;100.00;100536.27;87223;263;137091;-67
2024/01/07 09:03:23;;;;;;;4.30;3.80;;;;;;;-7.07;100.00;100547.82;87305;266;24280;-65
2024/01/07 09:05:25;;;;;;;5.20;3.60;;;;;;;-7.07;100.00;100530.55;87159;275;136958;-68
2024/01/07 09:07:27;;;;;;;9.70;4.70;;;;;;;-7.07;100.00;100528.11;87033;271;22642;-66
2024/01/07 09:09:28;;;;;;;6.00;4.70;;;;;;;-7.02;100.00;100528.10;87026;268;138467;-68
2024/01/07 09:11:33;;;;;;;6.40;5.10;;;;;;;-6.96;100.00;100524.70;87359;269;22564;-69
2024/01/07 09:13:37;;;;;;;5.90;4.90;;;;;;;-6.95;100.00;100530.01;87142;274;137247;-70
2024/01/07 09:15:43;;;;;;;7.20;5.70;;;;;;;-6.97;100.00;100527.84;87303;276;22570;-67
2024/01/07 09:17:46;;;;;;;7.00;5.40;;;;;;;-6.99;100.00;100526.19;87250;275;136914;-68
2024/01/07 09:19:50;;;;;;;7.50;5.40;;;;;;;-7.00;100.00;100525.42;87309;271;25184;-69
2024/01/07 09:21:52;;;;;;;6.50;5.30;;;;;;;-7.02;100.00;100523.25;87219;271;137130;-69
2024/01/07 09:23:56;;;;;;;7.70;5.40;;;;;;;-7.06;100.00;100526.02;87234;267;24481;-70
2024/01/07 09:25:58;;;;;;;6.50;5.00;;;;;;;-7.11;100.00;100523.84;87130;271;136914;-66